Terminal Aerodrome Forecast
Issued by NWS Cleveland, OH

Home | Current Version | Previous Version | Text Only | Print | Product List | Glossary On
Versions: 1 2 3 4 5 6 7 8 9 10 11 12 13 14 15 16 17 18 19 20 21 22 23 24 25 26 27 28 29 30 31 32
342
FTUS41 KCLE 190536
TAFCLE
TAF
KCLE 190536Z 1906/2012 22008KT P6SM -DZ OVC007
      TEMPO 1908/1912 4SM -DZ BR OVC004
     FM191500 22006KT P6SM OVC007
     FM191700 22006KT P6SM OVC012
     FM191900 20006KT P6SM OVC250
     FM200500 11006KT P6SM OVC080
     FM201000 11006KT P6SM -SHRA OVC035=

USA.gov is the U.S. government's official web portal to all federal, state and local government web resources and services.